createdAt,value
2024-02-13T00:01:08.963Z,9.77
2024-02-13T00:06:13.194Z,9.77
2024-02-13T00:11:19.719Z,8.83
2024-02-13T00:16:23.671Z,9.43
2024-02-13T00:21:28.018Z,9.00
2024-02-13T00:26:33.265Z,8.50
2024-02-13T00:31:37.050Z,10.00
2024-02-13T00:37:02.544Z,8.80
2024-02-13T00:42:08.550Z,9.85
2024-02-13T00:47:12.333Z,9.75
2024-02-13T00:52:16.410Z,9.50
2024-02-13T00:57:21.507Z,9.33
2024-02-13T01:02:25.874Z,9.32
2024-02-13T01:07:34.084Z,9.95
2024-02-13T01:12:40.548Z,9.95
2024-02-13T01:17:44.452Z,9.60
2024-02-13T01:22:48.455Z,9.30
2024-02-13T01:27:53.642Z,11.17
2024-02-13T01:32:57.513Z,10.65
2024-02-13T01:38:01.282Z,10.73
2024-02-13T01:43:06.665Z,10.48
2024-02-13T01:48:12.594Z,9.98
2024-02-13T01:53:17.340Z,11.52
2024-02-13T01:58:24.055Z,10.68
2024-02-13T02:03:32.411Z,10.38
2024-02-13T02:08:36.429Z,11.18
2024-02-13T02:13:41.642Z,11.33
2024-02-13T02:24:09.738Z,11.27
2024-02-13T02:29:38.383Z,12.52
2024-02-13T02:34:42.512Z,11.68
2024-02-13T02:39:46.244Z,11.70
2024-02-13T02:45:05.359Z,11.00
2024-02-13T02:50:12.666Z,11.02
2024-02-13T02:55:16.732Z,12.15
2024-02-13T03:00:23.153Z,11.05
2024-02-13T03:05:38.659Z,12.43
2024-02-13T03:10:43.131Z,10.83
2024-02-13T03:15:48.481Z,11.30
2024-02-13T03:20:52.517Z,9.98
2024-02-13T03:25:56.180Z,11.75
2024-02-13T03:31:21.234Z,11.05
2024-02-13T03:36:25.179Z,11.45
2024-02-13T03:41:28.848Z,12.43
2024-02-13T03:46:33.926Z,12.35
2024-02-13T03:51:51.604Z,13.77
2024-02-13T03:56:55.291Z,12.43
2024-02-13T04:02:01.228Z,13.75
2024-02-13T04:07:06.283Z,13.05
2024-02-13T04:12:11.492Z,13.13
2024-02-13T04:17:31.506Z,11.70
2024-02-13T04:22:35.848Z,12.20
2024-02-13T04:27:41.261Z,12.73
2024-02-13T04:32:46.587Z,12.90
2024-02-13T04:37:52.443Z,12.88
2024-02-13T04:42:56.186Z,11.95
2024-02-13T04:48:01.423Z,13.23
2024-02-13T04:53:05.267Z,12.90
2024-02-13T04:58:09.735Z,13.37
2024-02-13T05:03:26.516Z,11.60
2024-02-13T05:08:30.832Z,12.70
2024-02-13T05:13:48.438Z,12.73
2024-02-13T05:18:53.759Z,12.52
2024-02-13T05:23:57.598Z,12.88
2024-02-13T05:29:01.367Z,12.17
2024-02-13T05:34:07.982Z,11.47
2024-02-13T05:39:12.245Z,11.35
2024-02-13T05:44:15.944Z,11.80
2024-02-13T05:49:21.492Z,11.82
2024-02-13T05:54:25.283Z,12.18
2024-02-13T05:59:31.472Z,12.50
2024-02-13T06:04:36.980Z,11.77
2024-02-13T06:09:42.030Z,10.48
2024-02-13T06:14:48.978Z,10.40
2024-02-13T06:19:55.788Z,9.93
2024-02-13T06:24:59.607Z,9.75
2024-02-13T06:30:03.728Z,8.85
2024-02-13T06:35:14.504Z,9.43
2024-02-13T06:45:41.698Z,9.88
2024-02-13T06:50:47.024Z,10.70
2024-02-13T06:55:51.035Z,9.80
2024-02-13T07:00:55.152Z,9.88
2024-02-13T07:06:00.546Z,9.40
2024-02-13T07:11:07.669Z,10.63
2024-02-13T07:16:39.360Z,9.43
2024-02-13T07:21:46.260Z,10.02
2024-02-13T07:26:50.531Z,11.35
2024-02-13T07:31:56.005Z,11.98
2024-02-13T07:37:01.241Z,9.88
2024-02-13T07:42:05.415Z,10.27
2024-02-13T07:47:09.342Z,10.88
2024-02-13T07:52:14.610Z,11.07
2024-02-13T07:57:18.500Z,10.00
2024-02-13T08:02:23.842Z,10.07
2024-02-13T08:07:29.744Z,10.77
2024-02-13T08:12:34.262Z,11.60
2024-02-13T08:17:38.370Z,10.32
2024-02-13T08:22:43.534Z,10.43
2024-02-13T08:27:47.341Z,11.05
2024-02-13T08:32:51.184Z,10.85
2024-02-13T08:37:58.340Z,10.67
2024-02-13T08:43:02.166Z,10.85
2024-02-13T08:48:09.997Z,10.95
2024-02-13T08:53:15.697Z,11.55
2024-02-13T08:58:19.616Z,10.60
2024-02-13T09:03:24.078Z,12.30
2024-02-13T09:08:29.383Z,11.75
2024-02-13T09:13:33.103Z,11.30
2024-02-13T09:18:37.176Z,11.00
2024-02-13T09:23:45.141Z,10.75
2024-02-13T09:28:49.316Z,10.55
2024-02-13T09:33:53.295Z,10.10
2024-02-13T09:39:00.164Z,11.35
2024-02-13T09:44:04.125Z,11.23
2024-02-13T09:49:10.297Z,10.25
2024-02-13T09:54:31.198Z,11.05
2024-02-13T09:59:37.496Z,11.70
2024-02-13T10:04:42.892Z,10.85
2024-02-13T10:09:50.918Z,11.02
2024-02-13T10:15:00.635Z,10.45
2024-02-13T10:20:05.504Z,9.85
2024-02-13T10:25:32.428Z,10.32
2024-02-13T10:30:36.524Z,10.52
2024-02-13T10:35:40.749Z,9.88
2024-02-13T10:40:48.562Z,11.65
2024-02-13T10:45:54.473Z,10.38
2024-02-13T10:51:03.531Z,9.80
2024-02-13T10:56:11.867Z,10.55
2024-02-13T11:01:23.128Z,9.50
2024-02-13T11:06:28.573Z,9.50
2024-02-13T11:11:34.155Z,8.88
2024-02-13T11:16:38.401Z,8.48
2024-02-13T11:22:02.273Z,9.82
2024-02-13T11:27:30.362Z,7.97
2024-02-13T11:32:56.268Z,10.50
2024-02-13T11:38:02.741Z,8.48
2024-02-13T11:43:22.403Z,8.98
2024-02-13T11:48:31.531Z,9.02
2024-02-13T11:53:39.041Z,8.32
2024-02-13T11:58:44.629Z,7.93
2024-02-13T12:03:50.560Z,7.60
2024-02-13T12:08:57.438Z,7.72
2024-02-13T12:14:04.608Z,7.47
2024-02-13T12:19:09.960Z,7.30
2024-02-13T12:24:13.865Z,7.55
2024-02-13T12:29:20.743Z,7.80
2024-02-13T12:34:27.130Z,8.27
2024-02-13T12:39:32.199Z,8.00
2024-02-13T12:49:57.359Z,7.63
2024-02-13T12:55:01.358Z,6.22
2024-02-13T13:00:17.699Z,6.72
2024-02-13T13:05:21.600Z,6.85
2024-02-13T13:10:43.028Z,7.43
2024-02-13T13:15:50.889Z,6.90
2024-02-13T13:20:57.761Z,6.18
2024-02-13T13:26:02.876Z,6.32
2024-02-13T13:31:15.184Z,7.17
2024-02-13T13:36:20.142Z,7.73
2024-02-13T13:41:25.917Z,5.75
2024-02-13T13:46:33.186Z,5.55
2024-02-13T13:51:40.701Z,5.00
2024-02-13T13:56:44.750Z,5.00
2024-02-13T14:01:51.845Z,5.68
2024-02-13T14:06:56.856Z,5.80
2024-02-13T14:12:02.390Z,5.50
2024-02-13T14:17:08.032Z,5.53
2024-02-13T14:22:13.570Z,7.33
2024-02-13T14:27:17.294Z,6.03
2024-02-13T14:32:23.030Z,6.70
2024-02-13T14:37:27.348Z,5.70
2024-02-13T14:42:30.990Z,6.13
2024-02-13T14:47:36.355Z,6.83
2024-02-13T14:52:41.518Z,6.13
2024-02-13T14:58:00.189Z,6.40
2024-02-13T15:03:13.401Z,6.40
2024-02-13T15:08:19.002Z,6.90
2024-02-13T15:13:22.993Z,6.47
2024-02-13T15:18:29.321Z,7.22
2024-02-13T15:23:33.183Z,7.30
2024-02-13T15:28:37.236Z,7.93
2024-02-13T15:33:43.208Z,7.05
2024-02-13T15:39:04.599Z,7.50
2024-02-13T15:44:25.939Z,6.63
2024-02-13T15:49:31.762Z,7.20
2024-02-13T15:54:37.127Z,7.70
2024-02-13T15:59:42.858Z,8.10
2024-02-13T16:04:48.626Z,6.70
2024-02-13T16:09:52.773Z,8.67
2024-02-13T16:14:56.823Z,8.07
2024-02-13T16:20:02.390Z,8.07
2024-02-13T16:25:13.713Z,7.03
2024-02-13T16:30:20.163Z,9.00
2024-02-13T16:35:26.181Z,7.77
2024-02-13T16:40:30.338Z,8.33
2024-02-13T16:45:34.182Z,8.48
2024-02-13T16:50:39.831Z,7.87
2024-02-13T16:55:45.756Z,6.63
2024-02-13T17:00:53.291Z,7.57
2024-02-13T17:06:01.278Z,8.13
2024-02-13T17:11:08.068Z,7.80
2024-02-13T17:16:12.089Z,7.50
2024-02-13T17:21:18.013Z,7.50
2024-02-13T17:26:22.025Z,8.13
2024-02-13T17:31:26.135Z,7.72
2024-02-13T17:36:31.863Z,6.95
2024-02-13T17:41:36.057Z,7.53
2024-02-13T17:46:40.084Z,7.90
2024-02-13T17:52:00.241Z,7.22
2024-02-13T17:57:04.438Z,5.83
2024-02-13T18:02:09.052Z,6.65
2024-02-13T18:07:15.492Z,6.63
2024-02-13T18:12:19.354Z,6.67
2024-02-13T18:17:25.758Z,6.43
2024-02-13T18:22:31.007Z,6.50
2024-02-13T18:27:34.656Z,6.37
2024-02-13T18:37:57.577Z,6.73
2024-02-13T18:43:01.368Z,7.00
2024-02-13T18:53:27.804Z,6.67
2024-02-13T18:58:37.375Z,7.30
2024-02-13T19:03:41.201Z,6.70
2024-02-13T19:08:47.147Z,7.60
2024-02-13T19:13:51.023Z,6.53
2024-02-13T19:18:55.344Z,7.13
2024-02-13T19:24:00.883Z,6.75
2024-02-13T19:29:06.022Z,5.77
2024-02-13T19:34:10.023Z,6.27
2024-02-13T19:39:16.193Z,6.57
2024-02-13T19:44:20.672Z,6.57
2024-02-13T19:55:03.430Z,7.50
2024-02-13T20:00:27.372Z,7.90
2024-02-13T20:05:54.425Z,7.23
2024-02-13T20:11:17.870Z,6.20
2024-02-13T20:16:22.561Z,6.30
2024-02-13T20:21:30.466Z,6.57
2024-02-13T20:26:35.708Z,7.37
2024-02-13T20:31:39.387Z,7.37
2024-02-13T20:36:43.359Z,6.63
2024-02-13T20:41:49.199Z,6.15
2024-02-13T20:46:53.213Z,5.90
2024-02-13T20:51:57.103Z,6.65
2024-02-13T20:57:02.713Z,6.35
2024-02-13T21:02:06.982Z,6.43
2024-02-13T21:07:10.717Z,5.75
2024-02-13T21:12:15.940Z,6.20
2024-02-13T21:17:20.186Z,6.77
2024-02-13T21:22:41.095Z,6.47
2024-02-13T21:27:46.149Z,7.07
2024-02-13T21:32:50.048Z,5.63
2024-02-13T21:37:54.120Z,6.03
2024-02-13T21:42:59.259Z,5.43
2024-02-13T21:48:03.796Z,5.47
2024-02-13T21:53:07.547Z,6.63
2024-02-13T21:58:13.096Z,6.28
2024-02-13T22:03:17.172Z,6.37
2024-02-13T22:08:21.120Z,6.15
2024-02-13T22:13:29.859Z,6.87
2024-02-13T22:18:33.961Z,6.70
2024-02-13T22:23:37.858Z,5.78
2024-02-13T22:28:43.269Z,6.30
2024-02-13T22:33:49.953Z,5.93
2024-02-13T22:38:54.796Z,6.00
2024-02-13T22:44:01.080Z,6.60
2024-02-13T22:49:05.080Z,5.93
2024-02-13T22:54:08.895Z,5.95
2024-02-13T22:59:14.510Z,6.20
2024-02-13T23:04:18.970Z,6.40
2024-02-13T23:09:23.012Z,6.53
2024-02-13T23:14:37.353Z,5.97
2024-02-13T23:19:42.782Z,5.90
2024-02-13T23:24:46.533Z,5.70
2024-02-13T23:29:52.129Z,6.28
2024-02-13T23:34:56.489Z,6.67
2024-02-13T23:45:05.215Z,5.93
2024-02-13T23:50:10.837Z,6.33
2024-02-13T23:55:16.175Z,6.57
